sensor_id;sensor_type;location;lat;lon;timestamp;pressure;altitude;pressure_sealevel;temperature;humidity
7200;BME280;3641;49.082;8.200;2023-06-19T00:00:56;99764.63;;;23.06;52.56
7200;BME280;3641;49.082;8.200;2023-06-19T00:03:24;99764.41;;;22.72;54.14
7200;BME280;3641;49.082;8.200;2023-06-19T00:05:50;99771.13;;;22.55;54.82
7200;BME280;3641;49.082;8.200;2023-06-19T00:08:17;99775.03;;;22.64;54.15
7200;BME280;3641;49.082;8.200;2023-06-19T00:10:43;99771.38;;;22.64;54.15
7200;BME280;3641;49.082;8.200;2023-06-19T00:13:09;99778.31;;;23.08;48.70
7200;BME280;3641;49.082;8.200;2023-06-19T00:15:36;99787.53;;;22.62;54.40
7200;BME280;3641;49.082;8.200;2023-06-19T00:18:02;99787.28;;;22.53;54.60
7200;BME280;3641;49.082;8.200;2023-06-19T00:20:30;99786.97;;;22.75;52.94
7200;BME280;3641;49.082;8.200;2023-06-19T00:22:57;99803.66;;;22.85;50.98
7200;BME280;3641;49.082;8.200;2023-06-19T00:25:23;99816.75;;;22.70;51.85
7200;BME280;3641;49.082;8.200;2023-06-19T00:27:50;99831.78;;;22.79;52.98
7200;BME280;3641;49.082;8.200;2023-06-19T00:30:16;99838.44;;;22.78;52.03
7200;BME280;3641;49.082;8.200;2023-06-19T00:32:43;99846.16;;;22.19;55.07
7200;BME280;3641;49.082;8.200;2023-06-19T00:35:13;99842.63;;;22.55;51.75
7200;BME280;3641;49.082;8.200;2023-06-19T00:37:41;99853.19;;;22.89;49.78
7200;BME280;3641;49.082;8.200;2023-06-19T00:40:14;99857.38;;;22.55;53.76
7200;BME280;3641;49.082;8.200;2023-06-19T00:42:42;99854.88;;;22.74;52.52
7200;BME280;3641;49.082;8.200;2023-06-19T00:45:09;99847.34;;;22.70;50.25
7200;BME280;3641;49.082;8.200;2023-06-19T00:47:36;99846.50;;;22.84;49.39
7200;BME280;3641;49.082;8.200;2023-06-19T00:50:04;99861.53;;;22.78;50.04
7200;BME280;3641;49.082;8.200;2023-06-19T00:52:31;99865.16;;;22.68;52.51
7200;BME280;3641;49.082;8.200;2023-06-19T00:54:59;99872.66;;;22.42;53.13
7200;BME280;3641;49.082;8.200;2023-06-19T00:57:25;99872.63;;;22.32;53.97
7200;BME280;3641;49.082;8.200;2023-06-19T00:59:52;99880.44;;;22.51;50.74
7200;BME280;3641;49.082;8.200;2023-06-19T01:02:19;99888.53;;;22.78;49.15
7200;BME280;3641;49.082;8.200;2023-06-19T01:04:49;99882.41;;;22.55;53.01
7200;BME280;3641;49.082;8.200;2023-06-19T01:07:19;99883.41;;;22.18;55.10
7200;BME280;3641;49.082;8.200;2023-06-19T01:10:01;99897.00;;;22.14;56.13
7200;BME280;3641;49.082;8.200;2023-06-19T01:12:33;99888.03;;;21.82;58.02
7200;BME280;3641;49.082;8.200;2023-06-19T01:15:03;99898.53;;;21.74;59.24
7200;BME280;3641;49.082;8.200;2023-06-19T01:17:31;99903.16;;;21.53;62.40
7200;BME280;3641;49.082;8.200;2023-06-19T01:19:59;99901.41;;;21.95;61.80
7200;BME280;3641;49.082;8.200;2023-06-19T01:22:27;99902.03;;;21.49;65.01
7200;BME280;3641;49.082;8.200;2023-06-19T01:24:54;99899.38;;;20.95;70.38
7200;BME280;3641;49.082;8.200;2023-06-19T01:27:20;99896.84;;;20.61;73.96
7200;BME280;3641;49.082;8.200;2023-06-19T01:29:48;99894.81;;;20.51;74.68
7200;BME280;3641;49.082;8.200;2023-06-19T01:32:18;99897.25;;;20.42;77.15
7200;BME280;3641;49.082;8.200;2023-06-19T01:34:46;99887.38;;;20.29;78.67
7200;BME280;3641;49.082;8.200;2023-06-19T01:37:14;99879.97;;;20.08;79.51
7200;BME280;3641;49.082;8.200;2023-06-19T01:39:45;99879.06;;;20.02;80.00
7200;BME280;3641;49.082;8.200;2023-06-19T01:42:13;99882.75;;;20.35;75.55
7200;BME280;3641;49.082;8.200;2023-06-19T01:44:41;99876.69;;;19.89;82.78
7200;BME280;3641;49.082;8.200;2023-06-19T01:47:09;99877.50;;;19.67;84.37
7200;BME280;3641;49.082;8.200;2023-06-19T01:49:36;99878.28;;;19.63;85.75
7200;BME280;3641;49.082;8.200;2023-06-19T01:52:03;99880.81;;;19.25;88.75
7200;BME280;3641;49.082;8.200;2023-06-19T01:54:30;99871.31;;;19.21;89.57
7200;BME280;3641;49.082;8.200;2023-06-19T01:56:58;99868.75;;;19.14;90.38
7200;BME280;3641;49.082;8.200;2023-06-19T01:59:25;99855.75;;;19.98;80.63
7200;BME280;3641;49.082;8.200;2023-06-19T02:01:51;99873.56;;;19.41;82.93
7200;BME280;3641;49.082;8.200;2023-06-19T02:04:18;99857.75;;;20.03;74.87
7200;BME280;3641;49.082;8.200;2023-06-19T02:06:44;99855.44;;;19.94;82.18
7200;BME280;3641;49.082;8.200;2023-06-19T02:09:11;99861.41;;;19.86;82.63
7200;BME280;3641;49.082;8.200;2023-06-19T02:11:37;99855.25;;;20.01;82.63
7200;BME280;3641;49.082;8.200;2023-06-19T02:14:05;99865.91;;;19.09;90.01
7200;BME280;3641;49.082;8.200;2023-06-19T02:16:31;99877.16;;;18.85;92.05
7200;BME280;3641;49.082;8.200;2023-06-19T02:18:58;99900.34;;;19.57;88.39
7200;BME280;3641;49.082;8.200;2023-06-19T02:21:25;99894.03;;;20.01;79.41
7200;BME280;3641;49.082;8.200;2023-06-19T02:23:53;99898.94;;;19.55;86.72
7200;BME280;3641;49.082;8.200;2023-06-19T02:26:19;99906.97;;;19.17;89.88
7200;BME280;3641;49.082;8.200;2023-06-19T02:28:46;99916.81;;;20.08;72.31
7200;BME280;3641;49.082;8.200;2023-06-19T02:31:14;99932.44;;;20.42;69.83
7200;BME280;3641;49.082;8.200;2023-06-19T02:33:40;99924.13;;;20.42;71.29
7200;BME280;3641;49.082;8.200;2023-06-19T02:36:07;99919.03;;;19.84;79.46
7200;BME280;3641;49.082;8.200;2023-06-19T02:38:33;99928.56;;;20.43;69.05
7200;BME280;3641;49.082;8.200;2023-06-19T02:41:00;99941.38;;;20.22;79.07
7200;BME280;3641;49.082;8.200;2023-06-19T02:43:27;99941.56;;;20.15;77.24
7200;BME280;3641;49.082;8.200;2023-06-19T02:45:54;99945.88;;;20.28;71.36
7200;BME280;3641;49.082;8.200;2023-06-19T02:48:21;99941.59;;;20.42;72.27
7200;BME280;3641;49.082;8.200;2023-06-19T02:50:48;99947.41;;;20.41;70.30
7200;BME280;3641;49.082;8.200;2023-06-19T02:53:15;99941.63;;;19.59;82.07
7200;BME280;3641;49.082;8.200;2023-06-19T02:55:42;99938.22;;;20.13;79.55
7200;BME280;3641;49.082;8.200;2023-06-19T02:58:08;99937.63;;;20.11;73.29
7200;BME280;3641;49.082;8.200;2023-06-19T03:00:34;99948.78;;;19.94;73.77
7200;BME280;3641;49.082;8.200;2023-06-19T03:03:01;99944.19;;;20.27;76.85
7200;BME280;3641;49.082;8.200;2023-06-19T03:05:29;99949.06;;;20.64;77.54
7200;BME280;3641;49.082;8.200;2023-06-19T03:07:55;99955.03;;;20.28;81.69
7200;BME280;3641;49.082;8.200;2023-06-19T03:10:22;99962.13;;;20.19;81.63
7200;BME280;3641;49.082;8.200;2023-06-19T03:12:48;99963.28;;;19.79;84.44
7200;BME280;3641;49.082;8.200;2023-06-19T03:15:15;99957.78;;;19.84;82.68
7200;BME280;3641;49.082;8.200;2023-06-19T03:17:42;99959.38;;;19.41;86.05
7200;BME280;3641;49.082;8.200;2023-06-19T03:20:09;99966.59;;;19.42;87.53
7200;BME280;3641;49.082;8.200;2023-06-19T03:22:39;99969.44;;;19.30;87.00
7200;BME280;3641;49.082;8.200;2023-06-19T03:25:05;99972.31;;;19.74;77.76
7200;BME280;3641;49.082;8.200;2023-06-19T03:27:32;99971.13;;;19.70;79.63
7200;BME280;3641;49.082;8.200;2023-06-19T03:29:59;99971.75;;;19.55;83.52
7200;BME280;3641;49.082;8.200;2023-06-19T03:32:25;99977.47;;;19.66;76.50
7200;BME280;3641;49.082;8.200;2023-06-19T03:34:52;99979.69;;;19.30;85.57
7200;BME280;3641;49.082;8.200;2023-06-19T03:37:18;99982.28;;;19.36;86.75
7200;BME280;3641;49.082;8.200;2023-06-19T03:39:46;99985.34;;;19.74;82.44
7200;BME280;3641;49.082;8.200;2023-06-19T03:42:13;99983.78;;;20.00;76.35
7200;BME280;3641;49.082;8.200;2023-06-19T03:44:39;99971.06;;;19.82;83.78
7200;BME280;3641;49.082;8.200;2023-06-19T03:47:06;99969.63;;;19.40;86.20
7200;BME280;3641;49.082;8.200;2023-06-19T03:49:32;99976.59;;;19.65;80.44
7200;BME280;3641;49.082;8.200;2023-06-19T03:51:59;99974.56;;;19.21;88.73
7200;BME280;3641;49.082;8.200;2023-06-19T03:54:25;99983.03;;;19.88;74.90
7200;BME280;3641;49.082;8.200;2023-06-19T03:56:53;99985.72;;;20.00;78.70
7200;BME280;3641;49.082;8.200;2023-06-19T03:59:20;99991.94;;;19.34;87.24
7200;BME280;3641;49.082;8.200;2023-06-19T04:01:46;99994.28;;;19.42;86.68
7200;BME280;3641;49.082;8.200;2023-06-19T04:04:13;99998.00;;;19.70;77.45
7200;BME280;3641;49.082;8.200;2023-06-19T04:06:39;99996.84;;;19.83;83.58
7200;BME280;3641;49.082;8.200;2023-06-19T04:09:06;100004.38;;;19.70;80.31
7200;BME280;3641;49.082;8.200;2023-06-19T04:11:32;100006.56;;;19.68;83.98
7200;BME280;3641;49.082;8.200;2023-06-19T04:14:00;100003.28;;;19.88;82.15
7200;BME280;3641;49.082;8.200;2023-06-19T04:16:26;100010.84;;;19.59;83.98
7200;BME280;3641;49.082;8.200;2023-06-19T04:18:53;100001.56;;;19.48;84.74
7200;BME280;3641;49.082;8.200;2023-06-19T04:21:19;100001.13;;;19.56;79.02
7200;BME280;3641;49.082;8.200;2023-06-19T04:23:45;100000.06;;;19.40;86.33
7200;BME280;3641;49.082;8.200;2023-06-19T04:26:12;100003.97;;;19.62;83.44
7200;BME280;3641;49.082;8.200;2023-06-19T04:28:38;100010.69;;;19.83;79.80
7200;BME280;3641;49.082;8.200;2023-06-19T04:31:08;100002.13;;;18.99;89.48
7200;BME280;3641;49.082;8.200;2023-06-19T04:33:34;100004.47;;;19.75;75.38
7200;BME280;3641;49.082;8.200;2023-06-19T04:36:01;100007.09;;;19.48;86.00
7200;BME280;3641;49.082;8.200;2023-06-19T04:38:28;100003.56;;;19.87;76.38
7200;BME280;3641;49.082;8.200;2023-06-19T04:40:54;100006.31;;;19.87;78.65
7200;BME280;3641;49.082;8.200;2023-06-19T04:43:22;100008.75;;;19.83;82.85
7200;BME280;3641;49.082;8.200;2023-06-19T04:45:50;99999.81;;;19.98;81.71
7200;BME280;3641;49.082;8.200;2023-06-19T04:48:17;99997.09;;;19.64;78.71
7200;BME280;3641;49.082;8.200;2023-06-19T04:50:44;100001.59;;;19.70;84.34
7200;BME280;3641;49.082;8.200;2023-06-19T04:53:10;100003.03;;;19.90;79.11
7200;BME280;3641;49.082;8.200;2023-06-19T04:55:37;99997.16;;;20.08;75.71
7200;BME280;3641;49.082;8.200;2023-06-19T04:58:04;99996.31;;;19.86;81.66
7200;BME280;3641;49.082;8.200;2023-06-19T05:00:30;99999.97;;;19.52;86.35
7200;BME280;3641;49.082;8.200;2023-06-19T05:02:57;100007.22;;;19.92;81.33
7200;BME280;3641;49.082;8.200;2023-06-19T05:05:26;99992.22;;;19.71;86.02
7200;BME280;3641;49.082;8.200;2023-06-19T05:07:53;100004.19;;;19.94;81.09
7200;BME280;3641;49.082;8.200;2023-06-19T05:10:19;100010.59;;;19.94;84.00
7200;BME280;3641;49.082;8.200;2023-06-19T05:12:46;100001.53;;;19.82;84.37
7200;BME280;3641;49.082;8.200;2023-06-19T05:15:12;100006.75;;;19.78;80.45
7200;BME280;3641;49.082;8.200;2023-06-19T05:17:39;100004.78;;;19.96;84.50
7200;BME280;3641;49.082;8.200;2023-06-19T05:20:06;100007.91;;;20.22;81.17
7200;BME280;3641;49.082;8.200;2023-06-19T05:22:34;100017.34;;;20.04;79.22
7200;BME280;3641;49.082;8.200;2023-06-19T05:25:01;100019.72;;;19.95;84.44
7200;BME280;3641;49.082;8.200;2023-06-19T05:27:28;100016.13;;;19.94;84.53
7200;BME280;3641;49.082;8.200;2023-06-19T05:29:54;100022.84;;;20.21;79.65
7200;BME280;3641;49.082;8.200;2023-06-19T05:32:21;100021.53;;;20.50;79.86
7200;BME280;3641;49.082;8.200;2023-06-19T05:34:47;100021.59;;;20.11;81.36
7200;BME280;3641;49.082;8.200;2023-06-19T05:37:15;100016.63;;;19.91;85.70
7200;BME280;3641;49.082;8.200;2023-06-19T05:39:43;100015.81;;;20.13;84.08
7200;BME280;3641;49.082;8.200;2023-06-19T05:42:09;100015.66;;;20.47;75.41
7200;BME280;3641;49.082;8.200;2023-06-19T05:44:36;100014.53;;;20.21;84.15
7200;BME280;3641;49.082;8.200;2023-06-19T05:47:02;100014.88;;;20.51;81.15
7200;BME280;3641;49.082;8.200;2023-06-19T05:49:29;100010.97;;;20.70;73.88
7200;BME280;3641;49.082;8.200;2023-06-19T05:51:55;100007.03;;;20.43;80.87
7200;BME280;3641;49.082;8.200;2023-06-19T05:54:24;100010.25;;;20.57;80.41
7200;BME280;3641;49.082;8.200;2023-06-19T05:56:52;100010.72;;;20.98;72.95
7200;BME280;3641;49.082;8.200;2023-06-19T05:59:18;100019.75;;;20.39;83.43
7200;BME280;3641;49.082;8.200;2023-06-19T06:01:45;100016.63;;;20.58;82.45
7200;BME280;3641;49.082;8.200;2023-06-19T06:04:11;100020.38;;;20.96;74.78
7200;BME280;3641;49.082;8.200;2023-06-19T06:06:39;100017.53;;;20.63;81.34
7200;BME280;3641;49.082;8.200;2023-06-19T06:09:05;100010.97;;;20.97;78.61
7200;BME280;3641;49.082;8.200;2023-06-19T06:11:34;100012.06;;;20.96;80.82
7200;BME280;3641;49.082;8.200;2023-06-19T06:14:02;100016.50;;;21.24;76.78
7200;BME280;3641;49.082;8.200;2023-06-19T06:16:29;100020.75;;;21.37;77.85
7200;BME280;3641;49.082;8.200;2023-06-19T06:18:55;100022.16;;;21.39;77.69
7200;BME280;3641;49.082;8.200;2023-06-19T06:21:22;100034.88;;;21.63;76.68
7200;BME280;3641;49.082;8.200;2023-06-19T06:23:48;100037.66;;;21.63;75.41
7200;BME280;3641;49.082;8.200;2023-06-19T06:26:15;100034.06;;;21.62;77.34
7200;BME280;3641;49.082;8.200;2023-06-19T06:28:41;100035.19;;;22.14;75.80
7200;BME280;3641;49.082;8.200;2023-06-19T06:31:09;100027.59;;;22.47;72.99
7200;BME280;3641;49.082;8.200;2023-06-19T06:33:35;100028.69;;;22.41;73.77
7200;BME280;3641;49.082;8.200;2023-06-19T06:36:02;100042.88;;;22.44;73.98
7200;BME280;3641;49.082;8.200;2023-06-19T06:38:29;100038.16;;;21.97;75.68
7200;BME280;3641;49.082;8.200;2023-06-19T06:40:55;100048.84;;;22.79;72.46
7200;BME280;3641;49.082;8.200;2023-06-19T06:43:22;100051.75;;;23.46;68.53
7200;BME280;3641;49.082;8.200;2023-06-19T06:45:48;100056.75;;;23.28;69.29
7200;BME280;3641;49.082;8.200;2023-06-19T06:48:16;100069.03;;;23.37;68.60
7200;BME280;3641;49.082;8.200;2023-06-19T06:50:43;100069.00;;;23.22;69.68
7200;BME280;3641;49.082;8.200;2023-06-19T06:53:09;100080.06;;;22.96;70.53
7200;BME280;3641;49.082;8.200;2023-06-19T06:55:36;100083.63;;;22.28;73.67
7200;BME280;3641;49.082;8.200;2023-06-19T06:58:02;100084.16;;;22.20;74.08
7200;BME280;3641;49.082;8.200;2023-06-19T07:00:28;100078.81;;;22.08;74.27
7200;BME280;3641;49.082;8.200;2023-06-19T07:02:55;100084.78;;;22.27;71.11
7200;BME280;3641;49.082;8.200;2023-06-19T07:05:23;100092.22;;;22.22;71.54
7200;BME280;3641;49.082;8.200;2023-06-19T07:07:49;100092.22;;;21.79;75.98
7200;BME280;3641;49.082;8.200;2023-06-19T07:10:16;100097.75;;;22.11;74.42
7200;BME280;3641;49.082;8.200;2023-06-19T07:12:46;100102.16;;;22.07;74.35
7200;BME280;3641;49.082;8.200;2023-06-19T07:15:13;100101.44;;;22.27;72.32
7200;BME280;3641;49.082;8.200;2023-06-19T07:17:39;100110.16;;;21.99;74.21
7200;BME280;3641;49.082;8.200;2023-06-19T07:20:07;100108.31;;;21.77;74.24
7200;BME280;3641;49.082;8.200;2023-06-19T07:22:35;100103.59;;;22.15;70.53
7200;BME280;3641;49.082;8.200;2023-06-19T07:25:02;100108.84;;;21.74;76.03
7200;BME280;3641;49.082;8.200;2023-06-19T07:27:30;100110.88;;;22.26;70.42
7200;BME280;3641;49.082;8.200;2023-06-19T07:29:56;100118.69;;;21.87;74.86
7200;BME280;3641;49.082;8.200;2023-06-19T07:32:23;100117.81;;;21.81;74.03
7200;BME280;3641;49.082;8.200;2023-06-19T07:34:49;100129.91;;;22.02;73.94
7200;BME280;3641;49.082;8.200;2023-06-19T07:37:15;100132.56;;;21.87;74.86
7200;BME280;3641;49.082;8.200;2023-06-19T07:39:44;100134.06;;;22.00;74.75
7200;BME280;3641;49.082;8.200;2023-06-19T07:42:12;100139.81;;;21.88;75.59
7200;BME280;3641;49.082;8.200;2023-06-19T07:44:39;100147.13;;;21.99;73.95
7200;BME280;3641;49.082;8.200;2023-06-19T07:47:06;100143.44;;;21.88;73.96
7200;BME280;3641;49.082;8.200;2023-06-19T07:49:33;100147.22;;;22.14;72.97
7200;BME280;3641;49.082;8.200;2023-06-19T07:52:00;100150.59;;;21.84;75.15
7200;BME280;3641;49.082;8.200;2023-06-19T07:54:26;100149.66;;;22.01;72.64
7200;BME280;3641;49.082;8.200;2023-06-19T07:56:54;100144.53;;;21.87;75.13
7200;BME280;3641;49.082;8.200;2023-06-19T07:59:21;100143.81;;;21.70;76.13
7200;BME280;3641;49.082;8.200;2023-06-19T08:01:48;100149.50;;;21.85;73.24
7200;BME280;3641;49.082;8.200;2023-06-19T08:04:15;100141.38;;;22.11;71.76
7200;BME280;3641;49.082;8.200;2023-06-19T08:06:41;100146.13;;;21.78;74.58
7200;BME280;3641;49.082;8.200;2023-06-19T08:09:08;100150.13;;;21.92;73.96
7200;BME280;3641;49.082;8.200;2023-06-19T08:11:34;100151.94;;;22.09;72.42
7200;BME280;3641;49.082;8.200;2023-06-19T08:14:03;100158.63;;;22.13;71.77
7200;BME280;3641;49.082;8.200;2023-06-19T08:16:30;100150.34;;;21.86;74.19
7200;BME280;3641;49.082;8.200;2023-06-19T08:18:56;100149.09;;;21.99;74.10
7200;BME280;3641;49.082;8.200;2023-06-19T08:21:23;100151.53;;;21.95;74.18
7200;BME280;3641;49.082;8.200;2023-06-19T08:23:49;100144.88;;;21.96;74.14
7200;BME280;3641;49.082;8.200;2023-06-19T08:26:16;100148.22;;;21.98;73.85
7200;BME280;3641;49.082;8.200;2023-06-19T08:28:43;100152.84;;;21.87;74.64
7200;BME280;3641;49.082;8.200;2023-06-19T08:31:11;100151.44;;;22.22;72.75
7200;BME280;3641;49.082;8.200;2023-06-19T08:33:37;100157.56;;;21.82;74.73
7200;BME280;3641;49.082;8.200;2023-06-19T08:36:04;100162.09;;;21.93;74.17
7200;BME280;3641;49.082;8.200;2023-06-19T08:38:31;100165.16;;;21.97;74.58
7200;BME280;3641;49.082;8.200;2023-06-19T08:40:57;100163.06;;;22.14;70.67
7200;BME280;3641;49.082;8.200;2023-06-19T08:43:24;100173.41;;;22.19;72.53
7200;BME280;3641;49.082;8.200;2023-06-19T08:46:05;100168.66;;;21.82;75.11
7200;BME280;3641;49.082;8.200;2023-06-19T08:48:36;100163.97;;;22.20;72.08
7200;BME280;3641;49.082;8.200;2023-06-19T08:51:02;100169.91;;;21.96;74.65
7200;BME280;3641;49.082;8.200;2023-06-19T08:53:32;100171.66;;;22.07;74.68
7200;BME280;3641;49.082;8.200;2023-06-19T08:55:59;100174.94;;;21.99;74.54
7200;BME280;3641;49.082;8.200;2023-06-19T08:58:25;100176.81;;;22.26;73.12
7200;BME280;3641;49.082;8.200;2023-06-19T09:00:52;100164.13;;;22.40;72.89
7200;BME280;3641;49.082;8.200;2023-06-19T09:03:20;100160.81;;;22.11;73.48
7200;BME280;3641;49.082;8.200;2023-06-19T09:05:48;100158.69;;;22.23;73.32
7200;BME280;3641;49.082;8.200;2023-06-19T09:08:16;100158.78;;;22.34;72.95
7200;BME280;3641;49.082;8.200;2023-06-19T09:10:43;100164.84;;;22.68;70.58
7200;BME280;3641;49.082;8.200;2023-06-19T09:13:09;100159.28;;;22.73;71.10
7200;BME280;3641;49.082;8.200;2023-06-19T09:15:37;100150.63;;;22.64;71.54
7200;BME280;3641;49.082;8.200;2023-06-19T09:18:04;100153.44;;;22.75;70.96
7200;BME280;3641;49.082;8.200;2023-06-19T09:20:32;100155.16;;;22.86;69.85
7200;BME280;3641;49.082;8.200;2023-06-19T09:23:00;100154.25;;;23.33;67.33
7200;BME280;3641;49.082;8.200;2023-06-19T09:25:27;100148.66;;;23.33;68.45
7200;BME280;3641;49.082;8.200;2023-06-19T09:27:54;100154.56;;;23.52;66.61
7200;BME280;3641;49.082;8.200;2023-06-19T09:30:21;100142.31;;;23.64;66.91
7200;BME280;3641;49.082;8.200;2023-06-19T09:32:47;100144.50;;;23.51;67.26
7200;BME280;3641;49.082;8.200;2023-06-19T09:35:14;100146.22;;;23.88;65.16
7200;BME280;3641;49.082;8.200;2023-06-19T09:37:41;100147.28;;;23.56;67.10
7200;BME280;3641;49.082;8.200;2023-06-19T09:40:09;100137.31;;;23.97;64.85
7200;BME280;3641;49.082;8.200;2023-06-19T09:42:37;100138.66;;;23.37;66.26
7200;BME280;3641;49.082;8.200;2023-06-19T09:45:06;100142.88;;;23.91;64.54
7200;BME280;3641;49.082;8.200;2023-06-19T09:47:36;100135.63;;;24.11;64.15
7200;BME280;3641;49.082;8.200;2023-06-19T09:50:05;100136.44;;;24.17;63.86
7200;BME280;3641;49.082;8.200;2023-06-19T09:52:32;100141.44;;;24.35;62.67
7200;BME280;3641;49.082;8.200;2023-06-19T09:55:02;100130.25;;;24.40;62.95
7200;BME280;3641;49.082;8.200;2023-06-19T09:57:31;100122.13;;;24.49;61.92
7200;BME280;3641;49.082;8.200;2023-06-19T09:59:59;100122.72;;;24.51;62.69
7200;BME280;3641;49.082;8.200;2023-06-19T10:02:35;100130.81;;;24.58;62.75
7200;BME280;3641;49.082;8.200;2023-06-19T10:05:02;100138.91;;;24.44;62.99
7200;BME280;3641;49.082;8.200;2023-06-19T10:07:33;100134.75;;;24.41;62.14
7200;BME280;3641;49.082;8.200;2023-06-19T10:10:01;100129.72;;;24.33;64.04
7200;BME280;3641;49.082;8.200;2023-06-19T10:12:39;100121.13;;;24.19;64.00
7200;BME280;3641;49.082;8.200;2023-06-19T10:15:16;100121.34;;;24.28;63.51
7200;BME280;3641;49.082;8.200;2023-06-19T10:17:47;100122.78;;;24.25;63.76
7200;BME280;3641;49.082;8.200;2023-06-19T10:20:25;100115.06;;;24.82;61.82
7200;BME280;3641;49.082;8.200;2023-06-19T10:23:05;100120.00;;;25.01;61.73
7200;BME280;3641;49.082;8.200;2023-06-19T10:25:33;100114.72;;;24.99;60.78
7200;BME280;3641;49.082;8.200;2023-06-19T10:28:02;100109.53;;;25.22;62.02
7200;BME280;3641;49.082;8.200;2023-06-19T10:30:31;100115.13;;;25.22;61.22
7200;BME280;3641;49.082;8.200;2023-06-19T10:33:00;100110.84;;;25.40;60.71
7200;BME280;3641;49.082;8.200;2023-06-19T10:35:36;100105.97;;;25.56;60.06
7200;BME280;3641;49.082;8.200;2023-06-19T10:38:03;100105.16;;;25.55;59.10
7200;BME280;3641;49.082;8.200;2023-06-19T10:40:30;100103.88;;;25.37;58.65
7200;BME280;3641;49.082;8.200;2023-06-19T10:42:56;100099.16;;;25.72;59.53
7200;BME280;3641;49.082;8.200;2023-06-19T10:45:26;100095.72;;;25.81;59.45
7200;BME280;3641;49.082;8.200;2023-06-19T10:47:54;100097.00;;;25.93;59.47
7200;BME280;3641;49.082;8.200;2023-06-19T10:50:21;100080.97;;;26.04;57.82
7200;BME280;3641;49.082;8.200;2023-06-19T10:52:48;100094.25;;;26.18;56.83
7200;BME280;3641;49.082;8.200;2023-06-19T10:55:20;100079.59;;;26.26;58.59
7200;BME280;3641;49.082;8.200;2023-06-19T10:57:48;100072.53;;;26.34;58.21
7200;BME280;3641;49.082;8.200;2023-06-19T11:00:23;100072.75;;;26.37;57.90
7200;BME280;3641;49.082;8.200;2023-06-19T11:02:50;100078.94;;;26.34;57.90
7200;BME280;3641;49.082;8.200;2023-06-19T11:05:19;100071.94;;;26.37;58.34
7200;BME280;3641;49.082;8.200;2023-06-19T11:07:50;100075.47;;;26.23;55.28
7200;BME280;3641;49.082;8.200;2023-06-19T11:10:19;100068.47;;;26.21;55.86
7200;BME280;3641;49.082;8.200;2023-06-19T11:12:46;100065.63;;;26.26;57.68
7200;BME280;3641;49.082;8.200;2023-06-19T11:15:12;100065.09;;;26.48;56.71
7200;BME280;3641;49.082;8.200;2023-06-19T11:17:39;100059.38;;;26.58;58.35
7200;BME280;3641;49.082;8.200;2023-06-19T11:20:11;100060.41;;;26.87;56.36
7200;BME280;3641;49.082;8.200;2023-06-19T11:22:39;100060.84;;;26.75;54.70
7200;BME280;3641;49.082;8.200;2023-06-19T11:25:07;100052.28;;;26.66;56.72
7200;BME280;3641;49.082;8.200;2023-06-19T11:27:34;100045.66;;;26.57;57.32
7200;BME280;3641;49.082;8.200;2023-06-19T11:30:03;100054.56;;;26.40;57.06
7200;BME280;3641;49.082;8.200;2023-06-19T11:32:33;100055.31;;;26.21;57.11
7200;BME280;3641;49.082;8.200;2023-06-19T11:35:05;100058.38;;;25.96;55.63
7200;BME280;3641;49.082;8.200;2023-06-19T11:37:35;100059.41;;;25.76;55.80
7200;BME280;3641;49.082;8.200;2023-06-19T11:40:01;100057.88;;;26.18;57.50
7200;BME280;3641;49.082;8.200;2023-06-19T11:42:44;100051.81;;;26.35;57.33
7200;BME280;3641;49.082;8.200;2023-06-19T11:45:11;100051.44;;;26.41;54.96
7200;BME280;3641;49.082;8.200;2023-06-19T11:47:37;100051.22;;;26.38;56.68
7200;BME280;3641;49.082;8.200;2023-06-19T11:50:05;100049.91;;;26.54;56.32
7200;BME280;3641;49.082;8.200;2023-06-19T11:52:31;100042.06;;;26.75;54.49
7200;BME280;3641;49.082;8.200;2023-06-19T11:54:59;100036.94;;;26.82;54.83
7200;BME280;3641;49.082;8.200;2023-06-19T11:57:26;100037.88;;;26.97;53.29
7200;BME280;3641;49.082;8.200;2023-06-19T11:59:53;100029.28;;;26.88;55.01
7200;BME280;3641;49.082;8.200;2023-06-19T12:02:21;100036.88;;;26.88;53.71
7200;BME280;3641;49.082;8.200;2023-06-19T12:04:47;100030.50;;;27.01;51.75
7200;BME280;3641;49.082;8.200;2023-06-19T12:07:14;100033.47;;;27.10;54.97
7200;BME280;3641;49.082;8.200;2023-06-19T12:09:40;100029.00;;;27.09;54.86
7200;BME280;3641;49.082;8.200;2023-06-19T12:12:10;100026.34;;;26.98;52.40
7200;BME280;3641;49.082;8.200;2023-06-19T12:14:36;100028.31;;;26.98;53.45
7200;BME280;3641;49.082;8.200;2023-06-19T12:17:04;100019.25;;;27.06;53.60
7200;BME280;3641;49.082;8.200;2023-06-19T12:19:31;100015.84;;;27.09;55.15
7200;BME280;3641;49.082;8.200;2023-06-19T12:21:57;100010.56;;;27.22;53.90
7200;BME280;3641;49.082;8.200;2023-06-19T12:24:24;100023.38;;;27.09;52.70
7200;BME280;3641;49.082;8.200;2023-06-19T12:26:51;100014.59;;;26.96;53.04
7200;BME280;3641;49.082;8.200;2023-06-19T12:29:18;100018.47;;;27.00;50.69
7200;BME280;3641;49.082;8.200;2023-06-19T12:31:46;100017.16;;;27.12;54.63
7200;BME280;3641;49.082;8.200;2023-06-19T12:34:12;100012.25;;;27.04;54.55
7200;BME280;3641;49.082;8.200;2023-06-19T12:36:38;100006.44;;;27.19;54.65
7200;BME280;3641;49.082;8.200;2023-06-19T12:39:05;100003.16;;;27.31;53.09
7200;BME280;3641;49.082;8.200;2023-06-19T12:41:39;100001.56;;;27.25;51.34
7200;BME280;3641;49.082;8.200;2023-06-19T12:44:06;100008.84;;;27.26;50.77
7200;BME280;3641;49.082;8.200;2023-06-19T12:46:34;100003.84;;;27.04;53.84
7200;BME280;3641;49.082;8.200;2023-06-19T12:49:00;100006.47;;;27.14;54.83
7200;BME280;3641;49.082;8.200;2023-06-19T12:51:26;100008.63;;;27.22;51.24
7200;BME280;3641;49.082;8.200;2023-06-19T12:53:53;100014.97;;;26.90;49.15
7200;BME280;3641;49.082;8.200;2023-06-19T12:56:19;100012.03;;;27.00;51.42
7200;BME280;3641;49.082;8.200;2023-06-19T12:58:46;100012.84;;;27.19;52.39
7200;BME280;3641;49.082;8.200;2023-06-19T13:01:12;100009.53;;;27.36;52.71
7200;BME280;3641;49.082;8.200;2023-06-19T13:03:40;100007.94;;;27.30;53.29
7200;BME280;3641;49.082;8.200;2023-06-19T13:06:06;99992.22;;;27.48;53.33
7200;BME280;3641;49.082;8.200;2023-06-19T13:08:33;100000.09;;;27.46;51.92
7200;BME280;3641;49.082;8.200;2023-06-19T13:10:59;100006.53;;;27.47;51.46
7200;BME280;3641;49.082;8.200;2023-06-19T13:13:26;99998.28;;;27.56;52.91
7200;BME280;3641;49.082;8.200;2023-06-19T13:15:52;99996.34;;;27.18;49.21